createdAt,value
2023-05-06T00:00:52.374Z,3.37
2023-05-06T00:03:20.939Z,4.27
2023-05-06T00:05:49.754Z,3.47
2023-05-06T00:08:21.954Z,3.87
2023-05-06T00:10:53.432Z,3.90
2023-05-06T00:13:21.643Z,3.93
2023-05-06T00:15:52.245Z,4.40
2023-05-06T00:18:23.030Z,5.10
2023-05-06T00:20:52.232Z,4.20
2023-05-06T00:23:22.970Z,3.80
2023-05-06T00:25:50.837Z,4.30
2023-05-06T00:28:20.872Z,4.70
2023-05-06T00:30:53.077Z,4.33
2023-05-06T00:33:22.438Z,4.80
2023-05-06T00:35:50.819Z,5.07
2023-05-06T00:38:19.785Z,5.20
2023-05-06T00:40:51.352Z,5.60
2023-05-06T00:43:23.674Z,5.73
2023-05-06T00:45:56.215Z,5.23
2023-05-06T00:48:25.813Z,5.87
2023-05-06T00:50:56.176Z,6.20
2023-05-06T00:53:24.061Z,6.53
2023-05-06T00:55:54.709Z,6.50
2023-05-06T00:58:24.067Z,7.23
2023-05-06T01:01:00.105Z,7.07
2023-05-06T01:03:28.511Z,6.90
2023-05-06T01:06:06.215Z,7.57
2023-05-06T01:08:39.107Z,7.53
2023-05-06T01:11:15.608Z,7.80
2023-05-06T01:13:49.883Z,7.00
2023-05-06T01:16:25.215Z,6.40
2023-05-06T01:18:54.806Z,7.27
2023-05-06T01:21:34.584Z,7.57
2023-05-06T01:24:07.221Z,8.37
2023-05-06T01:26:36.126Z,8.70
2023-05-06T01:29:06.779Z,8.27
2023-05-06T01:31:44.307Z,7.60
2023-05-06T01:34:21.184Z,7.77
2023-05-06T01:36:57.871Z,8.80
2023-05-06T01:39:31.270Z,8.40
2023-05-06T01:42:03.255Z,8.23
2023-05-06T01:44:41.024Z,9.47
2023-05-06T01:47:10.616Z,9.77
2023-05-06T01:49:40.352Z,10.17
2023-05-06T01:52:10.250Z,10.30
2023-05-06T01:54:39.692Z,11.33
2023-05-06T01:57:09.478Z,11.27
2023-05-06T01:59:37.846Z,9.93
2023-05-06T02:02:08.335Z,11.00
2023-05-06T02:04:36.338Z,11.17
2023-05-06T02:07:05.799Z,10.40
2023-05-06T02:09:37.628Z,10.77
2023-05-06T02:12:08.476Z,11.10
2023-05-06T02:14:39.597Z,11.33
2023-05-06T02:17:10.386Z,12.27
2023-05-06T02:19:48.126Z,12.30
2023-05-06T02:22:16.525Z,12.63
2023-05-06T02:24:45.401Z,12.03
2023-05-06T02:27:14.895Z,11.83
2023-05-06T02:29:47.266Z,12.07
2023-05-06T02:32:24.524Z,12.60
2023-05-06T02:35:08.982Z,13.57
2023-05-06T02:37:37.893Z,13.43
2023-05-06T02:40:10.272Z,13.60
2023-05-06T02:42:40.216Z,12.83
2023-05-06T02:45:10.090Z,14.30
2023-05-06T02:47:45.884Z,14.30
2023-05-06T02:50:14.282Z,12.20
2023-05-06T02:52:42.891Z,14.23
2023-05-06T02:55:12.885Z,13.00
2023-05-06T02:57:42.349Z,14.23
2023-05-06T03:00:13.171Z,15.10
2023-05-06T03:02:44.039Z,13.97
2023-05-06T03:05:12.422Z,13.87
2023-05-06T03:07:41.317Z,16.50
2023-05-06T03:10:13.037Z,13.43
2023-05-06T03:12:42.360Z,13.30
2023-05-06T03:15:11.793Z,14.40
2023-05-06T03:17:39.738Z,13.77
2023-05-06T03:20:10.001Z,12.60
2023-05-06T03:22:38.174Z,13.77
2023-05-06T03:25:08.117Z,13.80
2023-05-06T03:27:36.731Z,13.53
2023-05-06T03:30:08.829Z,14.27
2023-05-06T03:32:37.099Z,13.60
2023-05-06T03:35:06.677Z,13.63
2023-05-06T03:37:35.965Z,13.90
2023-05-06T03:40:09.390Z,12.93
2023-05-06T03:42:37.235Z,14.97
2023-05-06T03:45:10.275Z,14.23
2023-05-06T03:47:46.033Z,13.30
2023-05-06T03:50:19.687Z,13.97
2023-05-06T03:52:47.587Z,14.77
2023-05-06T03:55:15.535Z,14.03
2023-05-06T03:57:44.383Z,13.93
2023-05-06T04:00:17.464Z,13.87
2023-05-06T04:02:47.818Z,14.97
2023-05-06T04:05:17.336Z,14.70
2023-05-06T04:07:46.342Z,14.67
2023-05-06T04:10:14.318Z,14.87
2023-05-06T04:12:42.681Z,15.80
2023-05-06T04:15:12.067Z,15.53
2023-05-06T04:17:41.822Z,14.50
2023-05-06T04:20:12.344Z,14.63
2023-05-06T04:22:40.655Z,15.67
2023-05-06T04:25:09.737Z,14.67
2023-05-06T04:27:40.298Z,14.90
2023-05-06T04:30:11.483Z,14.00
2023-05-06T04:32:44.093Z,15.03
2023-05-06T04:35:14.744Z,16.40
2023-05-06T04:37:44.551Z,14.57
2023-05-06T04:40:24.860Z,15.93
2023-05-06T04:42:55.674Z,16.33
2023-05-06T04:45:26.041Z,15.10
2023-05-06T04:47:55.392Z,14.60
2023-05-06T04:50:23.698Z,15.67
2023-05-06T04:52:52.619Z,14.73
2023-05-06T04:55:21.065Z,16.03
2023-05-06T04:57:54.619Z,15.90
2023-05-06T05:00:26.532Z,15.93
2023-05-06T05:03:02.001Z,15.73
2023-05-06T05:05:32.954Z,14.30
2023-05-06T05:08:01.734Z,15.07
2023-05-06T05:10:32.810Z,15.33
2023-05-06T05:13:03.011Z,14.43
2023-05-06T05:15:35.909Z,14.00
2023-05-06T05:18:13.800Z,13.63
2023-05-06T05:20:42.094Z,14.83
2023-05-06T05:23:12.015Z,14.80
2023-05-06T05:25:53.420Z,13.57
2023-05-06T05:28:25.272Z,13.87
2023-05-06T05:30:53.612Z,13.60
2023-05-06T05:33:23.281Z,14.87
2023-05-06T05:35:57.295Z,15.17
2023-05-06T05:38:26.509Z,14.40
2023-05-06T05:40:54.428Z,15.57
2023-05-06T05:43:26.025Z,14.80
2023-05-06T05:45:55.398Z,13.70
2023-05-06T05:48:24.763Z,14.43
2023-05-06T05:50:53.262Z,14.07
2023-05-06T05:53:21.431Z,14.10
2023-05-06T05:55:54.223Z,14.37
2023-05-06T05:58:22.487Z,14.57
2023-05-06T06:00:50.264Z,13.17
2023-05-06T06:03:20.473Z,13.30
2023-05-06T06:06:04.870Z,12.97
2023-05-06T06:08:36.024Z,12.93
2023-05-06T06:11:09.258Z,11.00
2023-05-06T06:13:38.130Z,11.10
2023-05-06T06:16:09.831Z,10.47
2023-05-06T06:18:40.635Z,10.37
2023-05-06T06:21:13.198Z,10.50
2023-05-06T06:23:41.625Z,11.40
2023-05-06T06:26:15.686Z,11.70
2023-05-06T06:28:51.029Z,9.53
2023-05-06T06:31:19.834Z,9.50
2023-05-06T06:33:48.715Z,8.60
2023-05-06T06:36:18.845Z,8.37
2023-05-06T06:38:48.271Z,6.83
2023-05-06T06:41:19.296Z,6.73
2023-05-06T06:43:55.749Z,7.83
2023-05-06T06:46:28.786Z,6.80
2023-05-06T06:48:56.667Z,6.80
2023-05-06T06:51:28.841Z,6.83
2023-05-06T06:53:59.668Z,6.63
2023-05-06T06:56:27.405Z,8.17
2023-05-06T06:59:08.169Z,7.63
2023-05-06T07:01:37.611Z,4.83
2023-05-06T07:04:07.599Z,6.47
2023-05-06T07:06:40.559Z,5.77
2023-05-06T07:09:08.626Z,6.18
2023-05-06T07:11:36.665Z,6.65
2023-05-06T07:14:04.449Z,4.60
2023-05-06T07:16:32.161Z,6.15
2023-05-06T07:19:00.182Z,5.68
2023-05-06T07:21:28.350Z,4.97
2023-05-06T07:23:57.561Z,5.23
2023-05-06T07:26:25.344Z,5.40
2023-05-06T07:28:53.106Z,5.47
2023-05-06T07:31:21.887Z,5.67
2023-05-06T07:33:50.015Z,8.87
2023-05-06T07:36:17.783Z,7.15
2023-05-06T07:38:45.591Z,5.55
2023-05-06T07:41:14.737Z,5.80
2023-05-06T07:43:42.520Z,5.68
2023-05-06T07:46:10.645Z,5.85
2023-05-06T07:48:38.548Z,4.97
2023-05-06T07:51:06.390Z,4.80
2023-05-06T07:53:34.205Z,4.78
2023-05-06T07:56:03.983Z,4.88
2023-05-06T07:58:33.198Z,5.80
2023-05-06T08:01:03.704Z,4.97
2023-05-06T08:03:32.170Z,4.75
2023-05-06T08:06:00.275Z,7.07
2023-05-06T08:08:28.429Z,5.43
2023-05-06T08:10:56.409Z,4.90
2023-05-06T08:13:24.176Z,5.00
2023-05-06T08:15:53.688Z,4.80
2023-05-06T08:18:22.722Z,6.00
2023-05-06T08:20:51.327Z,5.60
2023-05-06T08:23:19.159Z,5.28
2023-05-06T08:25:47.075Z,4.70
2023-05-06T08:28:14.939Z,6.28
2023-05-06T08:30:42.655Z,4.88
2023-05-06T08:33:12.093Z,4.63
2023-05-06T08:35:39.841Z,4.28
2023-05-06T08:38:07.579Z,5.50
2023-05-06T08:40:35.757Z,5.72
2023-05-06T08:43:05.199Z,3.92
2023-05-06T08:45:34.042Z,4.50
2023-05-06T08:48:02.048Z,3.95
2023-05-06T08:50:31.320Z,4.10
2023-05-06T08:52:59.193Z,2.95
2023-05-06T08:55:29.001Z,5.88
2023-05-06T08:58:01.031Z,3.95
2023-05-06T09:00:28.856Z,3.90
2023-05-06T09:02:56.738Z,4.07
2023-05-06T09:05:24.561Z,3.28
2023-05-06T09:07:53.698Z,4.38
2023-05-06T09:10:21.949Z,4.90
2023-05-06T09:12:49.781Z,3.35
2023-05-06T09:15:17.597Z,3.13
2023-05-06T09:17:45.435Z,2.70
2023-05-06T09:20:13.681Z,2.55
2023-05-06T09:22:42.424Z,3.08
2023-05-06T09:25:12.418Z,2.42
2023-05-06T09:27:41.160Z,2.72
2023-05-06T09:30:11.840Z,2.72
2023-05-06T09:32:40.918Z,2.13
2023-05-06T09:35:10.540Z,2.15
2023-05-06T09:37:38.455Z,3.10
2023-05-06T09:40:07.669Z,1.75
2023-05-06T09:42:37.755Z,2.85
2023-05-06T09:45:09.893Z,3.30
2023-05-06T09:47:38.898Z,2.33
2023-05-06T09:50:10.324Z,2.25
2023-05-06T09:52:38.662Z,1.80
2023-05-06T09:55:07.797Z,2.85
2023-05-06T09:57:38.542Z,2.03
2023-05-06T10:00:12.048Z,1.40
2023-05-06T10:02:42.133Z,1.95
2023-05-06T10:05:12.232Z,1.05
2023-05-06T10:07:41.841Z,1.10
2023-05-06T10:10:11.676Z,2.05
2023-05-06T10:12:41.385Z,1.30
2023-05-06T10:15:10.954Z,1.95
2023-05-06T10:17:41.354Z,1.13
2023-05-06T10:20:13.372Z,1.50
2023-05-06T10:22:53.388Z,1.45
2023-05-06T10:25:31.598Z,2.58
2023-05-06T10:28:02.977Z,1.13
2023-05-06T10:30:35.700Z,1.90
2023-05-06T10:33:06.936Z,2.33
2023-05-06T10:35:49.683Z,1.00
2023-05-06T10:38:23.648Z,1.10
2023-05-06T10:40:52.591Z,1.40
2023-05-06T10:43:32.176Z,3.10
2023-05-06T10:46:06.125Z,4.00
2023-05-06T10:48:34.891Z,1.20
2023-05-06T10:51:25.176Z,5.10
2023-05-06T10:54:03.844Z,1.25
2023-05-06T10:56:33.442Z,0.85
2023-05-06T10:59:08.979Z,3.20
2023-05-06T11:01:38.468Z,1.92
2023-05-06T11:04:10.646Z,2.17
2023-05-06T11:06:41.115Z,1.38
2023-05-06T11:09:17.886Z,3.00
2023-05-06T11:11:54.353Z,1.75
2023-05-06T11:14:31.062Z,0.93
2023-05-06T11:17:01.816Z,0.70
2023-05-06T11:19:34.327Z,0.85
2023-05-06T11:22:05.181Z,1.02
2023-05-06T11:24:40.848Z,2.58
2023-05-06T11:27:09.652Z,3.05
2023-05-06T11:29:40.198Z,1.02
2023-05-06T11:32:24.626Z,0.77
2023-05-06T11:34:57.446Z,2.45
2023-05-06T11:37:28.043Z,1.92
2023-05-06T11:39:56.264Z,0.95
2023-05-06T11:42:28.089Z,1.85
2023-05-06T11:44:59.664Z,0.65
2023-05-06T11:47:28.774Z,1.25
2023-05-06T11:49:56.658Z,0.43
2023-05-06T11:52:24.573Z,0.57
2023-05-06T11:54:53.956Z,0.52
2023-05-06T11:57:22.140Z,0.75
2023-05-06T11:59:55.139Z,0.98
2023-05-06T12:02:25.360Z,2.55
2023-05-06T12:04:53.740Z,0.73
2023-05-06T12:07:22.001Z,2.17
2023-05-06T12:09:51.103Z,1.55
2023-05-06T12:12:22.414Z,3.10
2023-05-06T12:14:51.109Z,0.70
2023-05-06T12:17:19.856Z,1.70
2023-05-06T12:19:50.408Z,1.13
2023-05-06T12:22:20.339Z,1.02
2023-05-06T12:24:50.138Z,1.42
2023-05-06T12:27:30.746Z,1.15
2023-05-06T12:29:58.581Z,1.00
2023-05-06T12:32:26.853Z,1.02
2023-05-06T12:35:05.277Z,1.23
2023-05-06T12:37:33.265Z,0.80
2023-05-06T12:40:01.341Z,0.88
2023-05-06T12:42:30.889Z,0.80
2023-05-06T12:44:59.219Z,0.75
2023-05-06T12:47:27.231Z,1.20
2023-05-06T12:49:59.279Z,0.40
2023-05-06T12:52:29.980Z,1.35
2023-05-06T12:54:58.566Z,0.30
2023-05-06T12:57:29.918Z,0.40
2023-05-06T12:59:57.667Z,0.65
2023-05-06T13:02:25.595Z,1.15
2023-05-06T13:04:53.495Z,0.73
2023-05-06T13:07:22.739Z,0.80
2023-05-06T13:09:50.942Z,1.17
2023-05-06T13:12:18.781Z,0.95
2023-05-06T13:14:46.538Z,0.40
2023-05-06T13:17:14.927Z,0.52
2023-05-06T13:19:42.727Z,0.50
2023-05-06T13:22:10.479Z,0.80
2023-05-06T13:24:40.091Z,0.73
2023-05-06T13:27:07.840Z,1.27
2023-05-06T13:29:35.697Z,1.10
2023-05-06T13:32:05.081Z,0.82
2023-05-06T13:34:34.594Z,0.57
2023-05-06T13:37:02.711Z,2.38
2023-05-06T13:39:30.629Z,1.30
2023-05-06T13:41:59.806Z,0.50
2023-05-06T13:44:28.222Z,1.17
2023-05-06T13:46:57.577Z,0.30
2023-05-06T13:49:25.495Z,1.30
2023-05-06T13:51:54.092Z,0.68
2023-05-06T13:54:22.276Z,0.47
2023-05-06T13:56:50.073Z,0.45
2023-05-06T13:59:21.463Z,0.63
2023-05-06T14:01:53.600Z,1.13
2023-05-06T14:04:21.575Z,0.60
2023-05-06T14:06:49.704Z,0.63
2023-05-06T14:09:18.380Z,1.65
2023-05-06T14:11:46.659Z,1.75
2023-05-06T14:14:15.544Z,0.80
2023-05-06T14:16:48.195Z,1.23
2023-05-06T14:19:16.330Z,0.50
2023-05-06T14:21:44.205Z,0.60
2023-05-06T14:24:13.015Z,0.40
2023-05-06T14:26:41.679Z,0.75
2023-05-06T14:29:11.824Z,0.60
2023-05-06T14:31:40.058Z,1.15
2023-05-06T14:34:09.685Z,0.85
2023-05-06T14:36:39.042Z,1.55
2023-05-06T14:39:07.554Z,1.58
2023-05-06T14:41:35.303Z,1.02
2023-05-06T14:44:03.430Z,0.70
2023-05-06T14:46:31.231Z,0.80
2023-05-06T14:48:59.548Z,0.80
2023-05-06T14:51:28.620Z,1.23
2023-05-06T14:53:59.289Z,1.17
2023-05-06T14:56:27.856Z,0.40
2023-05-06T14:58:56.171Z,0.50
2023-05-06T15:01:25.605Z,0.85
2023-05-06T15:03:54.176Z,1.25
2023-05-06T15:06:23.662Z,0.93
2023-05-06T15:08:53.074Z,1.00
2023-05-06T15:11:22.325Z,2.85
2023-05-06T15:13:50.129Z,0.40
2023-05-06T15:16:18.129Z,0.30
2023-05-06T15:18:46.981Z,0.75
2023-05-06T15:21:17.579Z,0.30
2023-05-06T15:23:47.908Z,0.63
2023-05-06T15:26:18.092Z,1.05
2023-05-06T15:28:49.723Z,0.30
2023-05-06T15:31:17.940Z,0.40
2023-05-06T15:33:45.763Z,1.25
2023-05-06T15:36:13.589Z,0.30
2023-05-06T15:38:59.649Z,0.30
2023-05-06T15:41:33.165Z,0.50
2023-05-06T15:44:03.280Z,1.00
2023-05-06T15:46:33.448Z,1.83
2023-05-06T15:49:31.907Z,2.05
2023-05-06T15:51:49.652Z,0.65
2023-05-06T15:54:19.525Z,0.65
2023-05-06T15:56:49.006Z,0.80
2023-05-06T15:59:17.403Z,0.73
2023-05-06T16:04:17.327Z,1.48
2023-05-06T16:06:47.005Z,3.15
2023-05-06T16:09:15.020Z,3.72
2023-05-06T16:11:43.896Z,3.15
2023-05-06T16:14:13.233Z,1.38
2023-05-06T16:16:43.122Z,0.60
2023-05-06T16:19:11.327Z,0.70
2023-05-06T16:21:39.115Z,1.60
2023-05-06T16:24:08.886Z,3.92
2023-05-06T16:26:36.817Z,5.40
2023-05-06T16:29:04.943Z,2.50
2023-05-06T16:31:36.272Z,5.75
2023-05-06T16:34:06.277Z,1.52
2023-05-06T16:36:34.520Z,0.70
2023-05-06T16:39:02.639Z,1.00
2023-05-06T16:41:31.529Z,1.77
2023-05-06T16:43:59.785Z,1.58
2023-05-06T16:46:28.974Z,2.70
2023-05-06T16:48:59.930Z,3.92
2023-05-06T16:51:27.736Z,1.23
2023-05-06T16:53:59.477Z,0.60
2023-05-06T16:56:36.752Z,1.25
2023-05-06T16:59:13.129Z,2.22
2023-05-06T17:01:43.767Z,2.30
2023-05-06T17:04:12.944Z,3.17
2023-05-06T17:06:40.980Z,1.70
2023-05-06T17:09:08.723Z,12.13
2023-05-06T17:11:36.496Z,1.42
2023-05-06T17:14:04.208Z,1.00
2023-05-06T17:16:32.115Z,1.25
2023-05-06T17:19:00.252Z,0.93
2023-05-06T17:21:30.283Z,1.10
2023-05-06T17:23:58.347Z,1.17
2023-05-06T17:26:26.434Z,1.85
2023-05-06T17:28:54.667Z,0.63
2023-05-06T17:31:22.707Z,1.15
2023-05-06T17:33:50.399Z,1.55
2023-05-06T17:36:20.610Z,1.30
2023-05-06T17:39:02.805Z,2.35
2023-05-06T17:41:30.905Z,2.90
2023-05-06T17:43:59.512Z,2.60
2023-05-06T17:46:31.599Z,1.17
2023-05-06T17:48:59.690Z,0.60
2023-05-06T17:51:28.664Z,3.17
2023-05-06T17:53:59.084Z,1.02
2023-05-06T17:56:27.956Z,1.45
2023-05-06T17:59:02.846Z,2.25
2023-05-06T18:01:31.238Z,2.92
2023-05-06T18:04:03.773Z,0.70
2023-05-06T18:06:32.368Z,2.78
2023-05-06T18:09:02.569Z,0.90
2023-05-06T18:11:33.323Z,3.08
2023-05-06T18:14:02.325Z,1.15
2023-05-06T18:16:33.456Z,0.70
2023-05-06T18:19:04.544Z,2.95
2023-05-06T18:21:33.934Z,1.92
2023-05-06T18:24:15.233Z,1.45
2023-05-06T18:26:46.039Z,2.55
2023-05-06T18:29:14.321Z,2.50
2023-05-06T18:31:42.300Z,5.28
2023-05-06T18:34:10.430Z,3.65
2023-05-06T18:36:38.785Z,1.13
2023-05-06T18:39:08.370Z,1.52
2023-05-06T18:41:36.534Z,0.57
2023-05-06T18:44:05.711Z,1.90
2023-05-06T18:46:33.735Z,3.13
2023-05-06T18:49:02.023Z,0.93
2023-05-06T18:51:32.009Z,1.70
2023-05-06T18:53:59.806Z,2.30
2023-05-06T18:56:30.269Z,3.28
2023-05-06T18:59:00.024Z,1.60
2023-05-06T19:01:27.779Z,6.82
2023-05-06T19:03:56.680Z,2.38
2023-05-06T19:06:24.479Z,1.20
2023-05-06T19:08:55.835Z,3.80
2023-05-06T19:11:23.572Z,3.85
2023-05-06T19:13:53.285Z,1.60
2023-05-06T19:16:21.150Z,1.42
2023-05-06T19:18:54.149Z,1.88
2023-05-06T19:21:22.423Z,2.38
2023-05-06T19:23:53.230Z,3.33
2023-05-06T19:26:22.560Z,2.72
2023-05-06T19:28:55.029Z,1.95
2023-05-06T19:31:25.201Z,2.15
2023-05-06T19:33:56.028Z,1.92
2023-05-06T19:36:25.903Z,1.58
2023-05-06T19:38:59.203Z,2.38
2023-05-06T19:41:29.504Z,1.48
2023-05-06T19:44:00.843Z,2.80
2023-05-06T19:46:30.451Z,4.15
2023-05-06T19:49:00.692Z,1.65
2023-05-06T19:51:28.884Z,2.85
2023-05-06T19:54:00.394Z,4.97
2023-05-06T19:56:28.603Z,2.15
2023-05-06T19:58:58.385Z,2.78
2023-05-06T20:01:28.838Z,1.42
2023-05-06T20:03:59.812Z,1.95
2023-05-06T20:06:37.970Z,2.50
2023-05-06T20:09:06.507Z,1.67
2023-05-06T20:11:37.952Z,1.20
2023-05-06T20:14:10.146Z,2.95
2023-05-06T20:16:49.780Z,2.40
2023-05-06T20:19:26.256Z,3.40
2023-05-06T20:21:55.273Z,1.98
2023-05-06T20:24:26.000Z,3.30
2023-05-06T20:27:01.981Z,2.08
2023-05-06T20:29:37.129Z,2.42
2023-05-06T20:32:06.605Z,2.60
2023-05-06T20:34:36.799Z,1.60
2023-05-06T20:37:09.864Z,4.60
2023-05-06T20:39:38.615Z,2.67
2023-05-06T20:42:11.640Z,2.77
2023-05-06T20:44:41.745Z,3.63
2023-05-06T20:47:12.915Z,2.33
2023-05-06T20:49:42.321Z,1.30
2023-05-06T20:52:15.498Z,1.10
2023-05-06T20:54:51.609Z,2.55
2023-05-06T20:57:21.084Z,3.20
2023-05-06T20:59:53.139Z,1.47
2023-05-06T21:02:21.188Z,1.83
2023-05-06T21:04:51.232Z,1.50
2023-05-06T21:07:21.275Z,2.40
2023-05-06T21:09:49.885Z,1.10
2023-05-06T21:12:19.106Z,2.20
2023-05-06T21:14:53.907Z,1.47
2023-05-06T21:17:27.936Z,2.73
2023-05-06T21:20:01.420Z,2.50
2023-05-06T21:22:31.448Z,3.97
2023-05-06T21:24:59.518Z,1.43
2023-05-06T21:27:34.885Z,2.03
2023-05-06T21:30:06.562Z,3.70
2023-05-06T21:32:35.265Z,11.60
2023-05-06T21:35:06.378Z,4.80
2023-05-06T21:37:35.652Z,8.43
2023-05-06T21:40:09.922Z,2.23
2023-05-06T21:42:37.647Z,2.70
2023-05-06T21:45:20.543Z,2.43
2023-05-06T21:47:50.486Z,3.00
2023-05-06T21:50:32.014Z,4.27
2023-05-06T21:53:03.708Z,5.57
2023-05-06T21:55:32.693Z,3.57
2023-05-06T21:58:02.105Z,2.43
2023-05-06T22:00:32.982Z,2.50
2023-05-06T22:03:02.050Z,2.27
2023-05-06T22:05:33.312Z,3.30
2023-05-06T22:08:04.085Z,3.17
2023-05-06T22:10:37.474Z,3.23
2023-05-06T22:13:08.591Z,2.37
2023-05-06T22:15:39.912Z,4.37
2023-05-06T22:18:09.658Z,3.10
2023-05-06T22:20:38.795Z,4.63
2023-05-06T22:23:07.673Z,2.63
2023-05-06T22:25:43.971Z,2.00
2023-05-06T22:28:14.343Z,4.10
2023-05-06T22:30:57.557Z,2.30
2023-05-06T22:33:27.262Z,2.37
2023-05-06T22:35:58.264Z,3.00
2023-05-06T22:38:26.491Z,2.40
2023-05-06T22:40:58.431Z,2.57
2023-05-06T22:43:27.774Z,2.70
2023-05-06T22:45:59.132Z,3.83
2023-05-06T22:48:28.420Z,2.20
2023-05-06T22:51:05.629Z,2.53
2023-05-06T22:53:34.721Z,2.30
2023-05-06T22:56:03.254Z,2.13
2023-05-06T22:58:33.082Z,2.07
2023-05-06T23:01:03.675Z,1.83
2023-05-06T23:03:33.930Z,2.30
2023-05-06T23:06:04.168Z,4.17
2023-05-06T23:08:34.691Z,2.00
2023-05-06T23:11:02.718Z,1.87
2023-05-06T23:13:36.366Z,5.63
2023-05-06T23:16:07.774Z,2.80
2023-05-06T23:18:36.848Z,2.37
2023-05-06T23:21:05.734Z,2.03
2023-05-06T23:23:33.872Z,2.70
2023-05-06T23:26:02.724Z,3.50
2023-05-06T23:28:30.603Z,2.73
2023-05-06T23:31:05.176Z,2.53
2023-05-06T23:33:37.964Z,3.47
2023-05-06T23:36:08.913Z,2.47
2023-05-06T23:38:42.449Z,2.70
2023-05-06T23:41:11.734Z,2.10
2023-05-06T23:43:47.120Z,2.10
2023-05-06T23:46:14.866Z,2.17
2023-05-06T23:48:44.349Z,3.80
2023-05-06T23:51:12.284Z,2.03
2023-05-06T23:53:43.054Z,1.50
2023-05-06T23:56:13.436Z,1.90
2023-05-06T23:58:41.912Z,1.73
